Aeroporto :
LOGIN :

Iscrizione | Disclaimer

   EN    FR    IT 

 










Sommario :    VFR   VFR Marginale   IFR   IFR Intensivo   IFR Molto Intensivo
Visibilità : 
Base nubi : 
>= 8 km
>= 3000ft
5 / 8 km
1000 / 3000 ft
1500m / 5 km
500 / 1000 ft
800 / 1500m
200 / 500 ft
< 800m
< 200 ft
Simboli :   Temporali  Nebbia  Neve Forte  Precipitazioni Forti  Vento > 20 kt
SIGMETs :   Varie  Temporali  Ghiacco  Turbolenza  Onda orograficha  Ceneri Vulcaniche






- Altitudine del aeroporto : 56 ft
- Codice IATA : ILY


EGPI - Islay

ULTIMO METAR :
  • 061120Z 29017KT 250V320 6000 RA FEW006 SCT018 10/08 Q0994

METARs OBSOLETI :
  • 061050Z 28015KT 9999 FEW007 SCT017 10/09 Q0994
  • 061020Z 26017KT 9999 FEW007 SCT015 10/09 Q0994
  • 060950Z 26018KT 9999 VCSH FEW006 SCT015 10/09 Q0993
  • 060920Z 26018KT 9999 FEW007 SCT014 BKN023 10/09 Q0993
  • 060850Z 25017KT 9999 FEW010 SCT014 BKN048 10/09 Q0993

TAF TAF EGPI
Valido dal 06 a 09 ore il 06 a 18 ore UTC


060803Z 0609/0618 26014KT 9999 FEW014 SCT025
TEMPO 0609/0618 27017G27KT 7000 SHRA BKN014
PROB30
TEMPO 0609/0612 4000 +SHRA BKN009CB



MetMap, La meteo Aeronautica in un colpo d'occhio ! - Copyright ORBIFLY Dicembre 2007 - Disclaimer

ORBIFLY MET'MAP TEAM :

Programmazione e sviluppo : Alexandra Zaïnal
Concezione : Baudouin d'Aumeries
Aiuto per la programmazione : Marc-Olivier Méhu
Supporto tecnico e logistico : Manuel Goepfert
Aiuto per la traduzione : Arnaldo La Scala

Contatto : metmap@orbifly.com




FONTI E CREDITI :

   NOAA